createdAt,value
2019-04-11T00:00:42.281Z,5.87
2019-04-11T00:03:11.349Z,7.23
2019-04-11T00:05:41.164Z,7.20
2019-04-11T00:08:10.149Z,7.20
2019-04-11T00:10:39.584Z,7.27
2019-04-11T00:13:17.312Z,7.47
2019-04-11T00:15:38.390Z,6.90
2019-04-11T00:18:08.031Z,7.27
2019-04-11T00:20:36.764Z,7.43
2019-04-11T00:23:06.036Z,7.20
2019-04-11T00:25:35.619Z,7.33
2019-04-11T00:28:05.761Z,7.17
2019-04-11T00:30:34.478Z,6.93
2019-04-11T00:33:03.005Z,7.30
2019-04-11T00:35:31.530Z,7.43
2019-04-11T00:38:01.302Z,6.70
2019-04-11T00:40:30.019Z,6.83
2019-04-11T00:42:58.942Z,6.10
2019-04-11T00:45:27.658Z,6.67
2019-04-11T00:47:57.436Z,7.03
2019-04-11T00:50:26.070Z,7.60
2019-04-11T00:52:54.564Z,7.80
2019-04-11T00:55:23.845Z,7.20
2019-04-11T00:57:53.000Z,6.87
2019-04-11T01:00:22.854Z,7.20
2019-04-11T01:02:51.579Z,6.97
2019-04-11T01:05:21.315Z,7.77
2019-04-11T01:07:51.060Z,8.10
2019-04-11T01:10:20.341Z,7.50
2019-04-11T01:12:49.878Z,7.40
2019-04-11T01:15:20.031Z,8.37
2019-04-11T01:17:49.626Z,7.63
2019-04-11T01:20:19.443Z,8.80
2019-04-11T01:22:48.710Z,7.43
2019-04-11T01:25:17.290Z,6.73
2019-04-11T01:27:45.941Z,7.17
2019-04-11T01:30:16.857Z,7.53
2019-04-11T01:32:46.451Z,6.30
2019-04-11T01:35:15.243Z,6.47
2019-04-11T01:37:43.988Z,6.77
2019-04-11T01:40:13.737Z,7.20
2019-04-11T01:42:42.327Z,7.00
2019-04-11T01:45:11.907Z,6.60
2019-04-11T01:47:59.354Z,6.70
2019-04-11T01:50:29.711Z,6.90
2019-04-11T01:52:58.452Z,8.00
2019-04-11T01:55:28.188Z,7.50
2019-04-11T01:57:56.997Z,6.47
2019-04-11T02:00:30.158Z,7.30
2019-04-11T02:03:01.867Z,6.70
2019-04-11T02:05:32.817Z,7.50
2019-04-11T02:08:01.430Z,7.13
2019-04-11T02:10:30.005Z,6.83
2019-04-11T02:12:59.595Z,7.40
2019-04-11T02:15:28.640Z,6.77
2019-04-11T02:17:57.333Z,6.90
2019-04-11T02:20:27.060Z,6.97
2019-04-11T02:23:14.990Z,7.00
2019-04-11T02:26:03.544Z,6.83
2019-04-11T02:28:32.877Z,7.20
2019-04-11T02:31:02.903Z,7.10
2019-04-11T02:33:32.938Z,7.27
2019-04-11T02:36:03.159Z,7.20
2019-04-11T02:38:32.661Z,7.07
2019-04-11T02:41:03.416Z,7.50
2019-04-11T02:43:34.059Z,6.90
2019-04-11T02:46:11.940Z,7.57
2019-04-11T02:48:35.462Z,7.23
2019-04-11T02:51:06.728Z,8.47
2019-04-11T02:53:36.627Z,8.20
2019-04-11T02:56:06.419Z,7.87
2019-04-11T02:58:36.935Z,8.60
2019-04-11T03:01:07.933Z,8.37
2019-04-11T03:03:37.379Z,9.60
2019-04-11T03:06:07.136Z,8.03
2019-04-11T03:08:36.758Z,8.17
2019-04-11T03:11:07.748Z,8.07
2019-04-11T03:13:38.332Z,7.30
2019-04-11T03:16:24.821Z,7.90
2019-04-11T03:18:54.892Z,8.07
2019-04-11T03:21:14.441Z,8.43
2019-04-11T03:23:41.628Z,7.97
2019-04-11T03:26:12.400Z,6.83
2019-04-11T03:28:45.169Z,8.03
2019-04-11T03:31:58.306Z,7.77
2019-04-11T03:37:10.079Z,7.10
2019-04-11T03:39:05.756Z,9.03
2019-04-11T03:41:27.055Z,8.67
2019-04-11T03:43:54.068Z,9.10
2019-04-11T03:46:36.492Z,9.20
2019-04-11T03:48:57.532Z,8.70
2019-04-11T03:51:18.750Z,8.63
2019-04-11T03:53:47.298Z,9.03
2019-04-11T03:56:18.264Z,8.93
2019-04-11T03:58:48.108Z,9.13
2019-04-11T04:01:18.251Z,9.07
2019-04-11T04:03:48.859Z,8.03
2019-04-11T04:06:18.993Z,8.40
2019-04-11T04:08:48.686Z,8.63
2019-04-11T04:11:24.915Z,9.10
2019-04-11T04:14:14.712Z,9.57
2019-04-11T04:16:48.195Z,8.17
2019-04-11T04:19:18.368Z,7.63
2019-04-11T04:21:55.335Z,8.27
2019-04-11T04:24:35.450Z,8.90
2019-04-11T04:27:04.274Z,8.37
2019-04-11T04:29:36.273Z,8.67
2019-04-11T04:32:05.205Z,10.00
2019-04-11T04:34:33.906Z,9.17
2019-04-11T04:37:05.573Z,9.33
2019-04-11T04:39:34.572Z,9.70
2019-04-11T04:42:11.358Z,10.37
2019-04-11T04:44:34.663Z,10.37
2019-04-11T04:47:13.906Z,10.00
2019-04-11T04:49:34.534Z,9.60
2019-04-11T04:52:04.125Z,11.10
2019-04-11T04:54:36.143Z,11.47
2019-04-11T04:57:05.012Z,12.93
2019-04-11T04:59:34.055Z,12.20
2019-04-11T05:02:03.997Z,10.37
2019-04-11T05:04:33.742Z,10.83
2019-04-11T05:07:03.216Z,12.33
2019-04-11T05:09:32.068Z,11.27
2019-04-11T05:12:01.424Z,11.50
2019-04-11T05:14:31.431Z,10.27
2019-04-11T05:17:00.579Z,11.87
2019-04-11T05:19:29.991Z,10.57
2019-04-11T05:21:59.765Z,11.63
2019-04-11T05:24:28.490Z,10.60
2019-04-11T05:26:57.885Z,12.47
2019-04-11T05:29:27.182Z,9.00
2019-04-11T05:31:56.727Z,10.60
2019-04-11T05:34:25.851Z,11.37
2019-04-11T05:36:55.466Z,10.70
2019-04-11T05:39:24.125Z,10.63
2019-04-11T05:41:52.665Z,10.47
2019-04-11T05:44:21.118Z,10.87
2019-04-11T05:46:55.851Z,11.33
2019-04-11T05:49:41.616Z,10.73
2019-04-11T05:52:12.185Z,9.50
2019-04-11T05:54:48.012Z,9.37
2019-04-11T05:57:16.986Z,10.93
2019-04-11T05:59:50.978Z,10.60
2019-04-11T06:02:25.060Z,10.97
2019-04-11T06:05:06.952Z,10.20
2019-04-11T06:07:41.022Z,9.47
2019-04-11T06:10:26.147Z,10.40
2019-04-11T06:13:14.867Z,10.40
2019-04-11T06:15:51.368Z,9.50
2019-04-11T06:18:32.279Z,10.17
2019-04-11T06:20:59.798Z,9.97
2019-04-11T06:23:45.643Z,9.83
2019-04-11T06:26:25.133Z,10.33
2019-04-11T06:28:56.922Z,11.07
2019-04-11T06:31:45.431Z,11.30
2019-04-11T06:34:15.464Z,10.93
2019-04-11T06:36:57.772Z,11.00
2019-04-11T06:39:33.672Z,9.80
2019-04-11T06:42:04.841Z,10.70
2019-04-11T06:44:39.554Z,10.37
2019-04-11T06:47:10.459Z,9.23
2019-04-11T06:49:42.588Z,9.40
2019-04-11T06:52:12.817Z,11.63
2019-04-11T06:54:59.347Z,10.37
2019-04-11T06:57:32.401Z,10.27
2019-04-11T07:00:02.969Z,11.57
2019-04-11T07:02:32.200Z,9.97
2019-04-11T07:05:06.388Z,11.17
2019-04-11T07:07:36.249Z,11.00
2019-04-11T07:10:07.140Z,10.13
2019-04-11T07:12:38.586Z,11.87
2019-04-11T07:15:16.963Z,10.57
2019-04-11T07:18:07.081Z,11.80
2019-04-11T07:20:52.515Z,12.63
2019-04-11T07:23:38.763Z,10.53
2019-04-11T07:26:12.269Z,11.27
2019-04-11T07:28:43.685Z,11.23
2019-04-11T07:31:21.303Z,11.37
2019-04-11T07:33:56.061Z,10.33
2019-04-11T07:36:43.921Z,10.13
2019-04-11T07:39:14.690Z,11.43
2019-04-11T07:41:45.649Z,10.43
2019-04-11T07:44:32.281Z,11.13
2019-04-11T07:47:17.311Z,11.60
2019-04-11T07:49:40.881Z,11.40
2019-04-11T07:52:13.043Z,11.80
2019-04-11T07:54:41.650Z,10.90
2019-04-11T07:57:28.496Z,10.40
2019-04-11T07:59:59.942Z,11.43
2019-04-11T08:02:43.312Z,9.87
2019-04-11T08:05:30.551Z,11.40
2019-04-11T08:08:11.047Z,11.60
2019-04-11T08:10:45.647Z,11.00
2019-04-11T08:13:31.378Z,10.70
2019-04-11T08:16:18.204Z,11.07
2019-04-11T08:19:07.540Z,9.63
2019-04-11T08:21:54.640Z,11.17
2019-04-11T08:24:44.790Z,11.10
2019-04-11T08:27:30.267Z,11.50
2019-04-11T08:30:00.748Z,11.07
2019-04-11T08:32:46.955Z,11.60
2019-04-11T08:35:30.160Z,11.57
2019-04-11T08:38:04.478Z,11.23
2019-04-11T08:40:35.743Z,11.90
2019-04-11T08:43:12.891Z,10.03
2019-04-11T08:45:46.549Z,10.83
2019-04-11T08:48:16.987Z,11.33
2019-04-11T08:51:03.069Z,10.70
2019-04-11T08:53:45.480Z,11.87
2019-04-11T08:56:18.963Z,12.33
2019-04-11T08:59:11.476Z,10.50
2019-04-11T09:01:40.514Z,12.03
2019-04-11T09:04:23.979Z,11.77
2019-04-11T09:06:53.229Z,10.73
2019-04-11T09:09:39.582Z,11.47
2019-04-11T09:12:10.109Z,12.33
2019-04-11T09:14:44.392Z,11.20
2019-04-11T09:17:16.523Z,10.70
2019-04-11T09:19:55.485Z,12.37
2019-04-11T09:22:41.536Z,12.50
2019-04-11T09:25:12.815Z,13.10
2019-04-11T09:27:43.183Z,12.20
2019-04-11T09:30:30.603Z,10.63
2019-04-11T09:33:01.112Z,11.63
2019-04-11T09:35:31.259Z,10.40
2019-04-11T09:38:02.237Z,10.70
2019-04-11T09:40:36.183Z,10.40
2019-04-11T09:43:24.158Z,12.37
2019-04-11T09:46:12.652Z,12.80
2019-04-11T09:48:52.153Z,9.90
2019-04-11T09:51:23.402Z,11.73
2019-04-11T09:53:54.753Z,11.17
2019-04-11T09:56:25.496Z,11.47
2019-04-11T09:58:56.099Z,10.93
2019-04-11T10:01:43.008Z,11.03
2019-04-11T10:04:14.335Z,10.57
2019-04-11T10:06:50.777Z,9.97
2019-04-11T10:09:21.946Z,11.23
2019-04-11T10:12:08.220Z,10.73
2019-04-11T10:14:37.695Z,11.03
2019-04-11T10:17:26.401Z,10.30
2019-04-11T10:19:56.011Z,10.30
2019-04-11T10:22:32.552Z,10.73
2019-04-11T10:25:08.884Z,10.90
2019-04-11T10:27:42.592Z,11.40
2019-04-11T10:30:29.871Z,11.93
2019-04-11T10:33:00.048Z,12.00
2019-04-11T10:35:46.296Z,11.17
2019-04-11T10:38:16.422Z,11.53
2019-04-11T10:40:59.374Z,10.63
2019-04-11T10:43:28.647Z,10.63
2019-04-11T10:46:15.418Z,10.67
2019-04-11T10:48:54.970Z,10.63
2019-04-11T10:51:27.653Z,11.40
2019-04-11T10:53:57.557Z,10.70
2019-04-11T10:56:44.440Z,12.63
2019-04-11T10:59:13.891Z,12.97
2019-04-11T11:02:00.380Z,11.67
2019-04-11T11:04:30.550Z,11.93
2019-04-11T11:07:00.652Z,12.00
2019-04-11T11:09:35.383Z,10.47
2019-04-11T11:12:23.199Z,11.30
2019-04-11T11:15:09.648Z,11.47
2019-04-11T11:18:00.960Z,12.10
2019-04-11T11:20:28.818Z,10.57
2019-04-11T11:22:56.916Z,10.47
2019-04-11T11:25:48.908Z,9.00
2019-04-11T11:28:18.031Z,10.57
2019-04-11T11:30:49.492Z,10.60
2019-04-11T11:33:20.293Z,10.10
2019-04-11T11:35:51.950Z,10.03
2019-04-11T11:38:25.985Z,10.57
2019-04-11T11:41:12.181Z,10.60
2019-04-11T11:43:41.259Z,10.23
2019-04-11T11:46:25.552Z,10.67
2019-04-11T11:48:54.189Z,11.23
2019-04-11T11:51:29.491Z,9.90
2019-04-11T11:54:05.198Z,11.40
2019-04-11T11:56:35.483Z,11.30
2019-04-11T11:59:09.122Z,10.60
2019-04-11T12:01:52.692Z,10.27
2019-04-11T12:04:42.218Z,9.67
2019-04-11T12:07:12.903Z,10.40
2019-04-11T12:09:59.232Z,12.07
2019-04-11T12:12:44.273Z,10.33
2019-04-11T12:15:17.756Z,10.17
2019-04-11T12:18:06.711Z,10.63
2019-04-11T12:20:34.823Z,10.40
2019-04-11T12:23:08.746Z,10.53
2019-04-11T12:25:39.034Z,10.27
2019-04-11T12:28:13.151Z,9.00
2019-04-11T12:30:44.177Z,10.17
2019-04-11T12:33:30.293Z,10.13
2019-04-11T12:36:06.455Z,10.37
2019-04-11T12:38:54.896Z,9.00
2019-04-11T12:41:25.249Z,10.13
2019-04-11T12:44:07.323Z,10.97
2019-04-11T12:46:42.997Z,11.77
2019-04-11T12:49:28.325Z,9.80
2019-04-11T12:52:14.673Z,11.43
2019-04-11T12:54:47.577Z,10.80
2019-04-11T12:57:20.583Z,10.10
2019-04-11T12:59:50.672Z,10.90
2019-04-11T13:02:29.571Z,9.53
2019-04-11T13:04:58.089Z,9.67
2019-04-11T13:07:28.293Z,9.40
2019-04-11T13:09:58.523Z,9.70
2019-04-11T13:12:28.617Z,10.90
2019-04-11T13:15:01.678Z,10.77
2019-04-11T13:17:31.857Z,11.23
2019-04-11T13:20:19.909Z,9.83
2019-04-11T13:22:50.068Z,9.57
2019-04-11T13:25:36.561Z,9.70
2019-04-11T13:28:05.369Z,10.07
2019-04-11T13:30:50.520Z,11.00
2019-04-11T13:33:20.908Z,9.73
2019-04-11T13:35:51.034Z,9.73
2019-04-11T13:38:21.212Z,10.50
2019-04-11T13:41:00.366Z,10.23
2019-04-11T13:43:33.083Z,10.20
2019-04-11T13:46:03.339Z,11.00
2019-04-11T13:48:48.643Z,10.00
2019-04-11T13:51:27.962Z,10.90
2019-04-11T13:54:14.464Z,10.83
2019-04-11T13:56:56.770Z,9.93
2019-04-11T13:59:32.702Z,12.10
2019-04-11T14:02:03.017Z,10.70
2019-04-11T14:04:33.190Z,10.53
2019-04-11T14:07:01.658Z,10.03
2019-04-11T14:09:32.104Z,9.30
2019-04-11T14:12:04.783Z,11.73
2019-04-11T14:14:32.930Z,9.67
2019-04-11T14:17:12.580Z,11.00
2019-04-11T14:19:59.397Z,10.73
2019-04-11T14:22:46.092Z,10.67
2019-04-11T14:25:25.869Z,9.70
2019-04-11T14:27:56.038Z,8.97
2019-04-11T14:30:31.986Z,7.93
2019-04-11T14:33:01.033Z,8.47
2019-04-11T14:35:43.482Z,9.97
2019-04-11T14:38:16.501Z,9.70
2019-04-11T14:41:01.226Z,8.87
2019-04-11T14:43:26.821Z,8.37
2019-04-11T14:45:57.203Z,9.17
2019-04-11T14:48:43.874Z,9.40
2019-04-11T14:51:16.728Z,8.87
2019-04-11T14:54:02.162Z,8.03
2019-04-11T14:56:47.866Z,10.13
2019-04-11T14:59:18.408Z,8.47
2019-04-11T15:01:48.545Z,8.30
2019-04-11T15:04:35.120Z,8.53
2019-04-11T15:07:05.130Z,7.67
2019-04-11T15:09:38.229Z,8.20
2019-04-11T15:12:11.348Z,7.80
2019-04-11T15:14:47.502Z,7.77
2019-04-11T15:17:37.493Z,7.70
2019-04-11T15:20:23.390Z,7.53
2019-04-11T15:22:53.496Z,6.63
2019-04-11T15:25:26.293Z,7.97
2019-04-11T15:27:56.438Z,7.27
2019-04-11T15:30:29.468Z,6.67
2019-04-11T15:32:59.689Z,6.10
2019-04-11T15:35:28.358Z,7.03
2019-04-11T15:38:14.605Z,7.20
2019-04-11T15:40:44.042Z,6.77
2019-04-11T15:43:29.343Z,5.90
2019-04-11T15:46:05.382Z,5.50
2019-04-11T15:48:38.796Z,6.10
2019-04-11T15:51:20.939Z,5.80
2019-04-11T15:53:51.020Z,6.13
2019-04-11T15:56:21.146Z,6.00
2019-04-11T15:58:51.306Z,6.23
2019-04-11T16:01:36.593Z,5.37
2019-04-11T16:04:06.697Z,6.30
2019-04-11T16:06:38.972Z,6.20
2019-04-11T16:09:09.707Z,6.23
2019-04-11T16:11:57.080Z,5.77
2019-04-11T16:14:25.602Z,4.57
2019-04-11T16:16:55.720Z,5.63
2019-04-11T16:19:34.773Z,5.27
2019-04-11T16:22:07.505Z,5.50
2019-04-11T16:24:37.709Z,5.37
2019-04-11T16:27:10.382Z,5.70
2019-04-11T16:29:43.410Z,4.93
2019-04-11T16:32:13.497Z,5.50
2019-04-11T16:34:48.645Z,4.80
2019-04-11T16:37:18.034Z,5.73
2019-04-11T16:40:04.498Z,5.00
2019-04-11T16:42:34.886Z,5.83
2019-04-11T16:45:24.767Z,5.93
2019-04-11T16:47:57.084Z,5.17
2019-04-11T16:50:25.538Z,4.90
2019-04-11T16:52:54.169Z,5.83
2019-04-11T16:55:22.736Z,6.00
2019-04-11T16:57:51.282Z,4.93
2019-04-11T17:00:20.610Z,5.50
2019-04-11T17:02:49.763Z,5.97
2019-04-11T17:05:18.217Z,5.47
2019-04-11T17:07:48.354Z,5.47
2019-04-11T17:10:18.439Z,6.47
2019-04-11T17:12:46.903Z,5.60
2019-04-11T17:15:15.514Z,5.97
2019-04-11T17:17:44.119Z,6.47
2019-04-11T17:20:14.976Z,6.10
2019-04-11T17:22:43.540Z,6.20
2019-04-11T17:25:11.987Z,6.40
2019-04-11T17:27:40.548Z,7.13
2019-04-11T17:30:09.537Z,6.47
2019-04-11T17:32:37.996Z,7.07
2019-04-11T17:35:07.533Z,6.53
2019-04-11T17:37:36.225Z,6.10
2019-04-11T17:40:07.029Z,7.40
2019-04-11T17:42:36.971Z,6.37
2019-04-11T17:45:06.945Z,7.40
2019-04-11T17:47:35.627Z,6.77
2019-04-11T17:50:06.507Z,7.10
2019-04-11T17:52:35.111Z,8.27
2019-04-11T17:55:04.511Z,7.50
2019-04-11T17:57:32.946Z,7.70
2019-04-11T18:00:01.481Z,7.70
2019-04-11T18:02:30.125Z,7.00
2019-04-11T18:04:59.042Z,7.43
2019-04-11T18:07:27.961Z,7.40
2019-04-11T18:09:56.731Z,6.90
2019-04-11T18:12:26.205Z,6.43
2019-04-11T18:14:55.246Z,6.90
2019-04-11T18:17:23.796Z,6.27
2019-04-11T18:19:52.377Z,7.87
2019-04-11T18:22:20.932Z,7.43
2019-04-11T18:24:50.153Z,7.03
2019-04-11T18:27:21.557Z,6.90
2019-04-11T18:29:52.750Z,7.30
2019-04-11T18:32:19.860Z,7.10
2019-04-11T18:34:48.666Z,6.93
2019-04-11T18:37:17.502Z,6.67
2019-04-11T18:39:46.064Z,6.77
2019-04-11T18:42:14.551Z,7.30
2019-04-11T18:44:43.095Z,6.97
2019-04-11T18:47:11.549Z,6.73
2019-04-11T18:49:40.020Z,7.30
2019-04-11T18:52:19.211Z,7.77
2019-04-11T18:54:38.656Z,7.50
2019-04-11T18:57:07.366Z,7.73
2019-04-11T18:59:36.018Z,6.70
2019-04-11T19:02:04.733Z,7.27
2019-04-11T19:04:33.276Z,6.77
2019-04-11T19:07:01.818Z,7.20
2019-04-11T19:09:30.369Z,6.50
2019-04-11T19:11:58.847Z,6.53
2019-04-11T19:14:27.341Z,6.50
2019-04-11T19:16:55.882Z,6.87
2019-04-11T19:19:27.301Z,6.23
2019-04-11T19:21:54.842Z,6.93
2019-04-11T19:24:34.815Z,7.43
2019-04-11T19:26:53.583Z,6.87
2019-04-11T19:29:24.742Z,6.50
2019-04-11T19:31:52.234Z,6.57
2019-04-11T19:34:20.702Z,7.10
2019-04-11T19:36:49.170Z,6.10
2019-04-11T19:39:17.818Z,5.90
2019-04-11T19:41:48.033Z,6.90
2019-04-11T19:44:16.816Z,6.20
2019-04-11T19:46:48.485Z,6.37
2019-04-11T19:49:16.836Z,5.77
2019-04-11T19:51:45.454Z,6.10
2019-04-11T19:54:14.066Z,6.40
2019-04-11T19:57:00.375Z,6.57
2019-04-11T19:59:29.028Z,6.97
2019-04-11T20:01:57.539Z,6.33
2019-04-11T20:04:26.116Z,7.07
2019-04-11T20:06:54.572Z,7.00
2019-04-11T20:09:23.100Z,6.37
2019-04-11T20:11:51.823Z,7.10
2019-04-11T20:14:20.472Z,6.37
2019-04-11T20:16:50.871Z,7.53
2019-04-11T20:19:19.258Z,7.17
2019-04-11T20:21:47.776Z,6.93
2019-04-11T20:24:16.419Z,7.77
2019-04-11T20:26:44.937Z,6.83
2019-04-11T20:29:13.406Z,6.97
2019-04-11T20:31:41.843Z,7.27
2019-04-11T20:34:10.403Z,6.90
2019-04-11T20:36:41.260Z,7.20
2019-04-11T20:39:09.434Z,6.67
2019-04-11T20:41:37.891Z,6.33
2019-04-11T20:44:06.478Z,6.80
2019-04-11T20:46:34.961Z,6.50
2019-04-11T20:49:03.832Z,6.87
2019-04-11T20:51:32.345Z,7.50
2019-04-11T20:54:00.820Z,7.23
2019-04-11T20:56:29.267Z,6.70
2019-04-11T20:58:57.731Z,6.60
2019-04-11T21:01:26.830Z,6.80
2019-04-11T21:03:55.410Z,6.47
2019-04-11T21:06:23.949Z,6.13
2019-04-11T21:08:52.653Z,8.00
2019-04-11T21:11:21.444Z,6.80
2019-04-11T21:13:49.908Z,6.43
2019-04-11T21:16:18.568Z,6.07
2019-04-11T21:18:47.226Z,6.63
2019-04-11T21:21:15.709Z,6.50
2019-04-11T21:23:44.150Z,6.80
2019-04-11T21:26:12.623Z,7.10
2019-04-11T21:28:41.150Z,7.63
2019-04-11T21:31:09.757Z,6.53
2019-04-11T21:33:41.297Z,6.40
2019-04-11T21:36:09.805Z,6.73
2019-04-11T21:38:38.283Z,6.13
2019-04-11T21:41:06.789Z,6.87
2019-04-11T21:43:36.314Z,6.47
2019-04-11T21:46:06.973Z,6.60
2019-04-11T21:48:36.509Z,6.50
2019-04-11T21:51:05.261Z,6.03
2019-04-11T21:53:36.652Z,5.97
2019-04-11T21:56:03.905Z,6.20
2019-04-11T21:58:32.507Z,6.43
2019-04-11T22:01:04.319Z,6.53
2019-04-11T22:03:33.001Z,6.57
2019-04-11T22:06:01.640Z,5.90
2019-04-11T22:08:32.032Z,6.10
2019-04-11T22:11:02.959Z,6.37
2019-04-11T22:13:30.522Z,5.90
2019-04-11T22:15:59.074Z,5.87
2019-04-11T22:18:27.877Z,6.37
2019-04-11T22:20:56.365Z,5.97
2019-04-11T22:23:24.819Z,5.80
2019-04-11T22:25:53.278Z,6.37
2019-04-11T22:28:22.021Z,5.80
2019-04-11T22:30:54.814Z,6.53
2019-04-11T22:33:42.099Z,6.00
2019-04-11T22:36:10.633Z,5.70
2019-04-11T22:38:39.115Z,6.40
2019-04-11T22:41:07.571Z,6.13
2019-04-11T22:43:38.146Z,5.97
2019-04-11T22:46:08.083Z,6.50
2019-04-11T22:48:36.867Z,6.73
2019-04-11T22:51:08.836Z,5.87
2019-04-11T22:53:37.045Z,5.70
2019-04-11T22:56:05.479Z,6.57
2019-04-11T22:58:34.176Z,6.97
2019-04-11T23:01:02.741Z,6.70
2019-04-11T23:03:32.902Z,7.27
2019-04-11T23:06:01.446Z,6.80
2019-04-11T23:08:30.035Z,6.80
2019-04-11T23:10:58.482Z,7.20
2019-04-11T23:13:26.953Z,7.03
2019-04-11T23:15:55.474Z,7.10
2019-04-11T23:18:24.049Z,7.17
2019-04-11T23:20:52.537Z,6.97
2019-04-11T23:23:21.055Z,7.33
2019-04-11T23:25:49.526Z,6.73
2019-04-11T23:28:18.008Z,6.90
2019-04-11T23:30:49.500Z,6.63
2019-04-11T23:33:19.013Z,8.03
2019-04-11T23:35:48.841Z,7.77
2019-04-11T23:38:17.127Z,6.63
2019-04-11T23:40:45.655Z,7.70
2019-04-11T23:43:15.342Z,7.63
2019-04-11T23:45:43.986Z,7.37
2019-04-11T23:48:12.591Z,8.20
2019-04-11T23:50:41.049Z,7.00
2019-04-11T23:53:09.696Z,7.60
2019-04-11T23:55:38.141Z,7.10
2019-04-11T23:58:06.771Z,6.40
